Bradshaw Army Airfield Camp Pohakuloa US
ICAO: PHSF
IATA:
Category: Medium
Scheduled Services:

Elevation: 6190 ft
TransAlt. 18000 ft.

Airport Communications:
HONOLULU CNTR:126
ATIS:124.7
CTAF:126.3
RANGE:38.3
PMSV METRO:122.75
HONOLULU RDO:25.54
TWR:41.5

PHSF Zoom In..

Runways:

(A) RW 09 length 3695 ft width 90 ft
---- / hdg 91

(B) RW 27 length 3695 ft width 90 ft
---- / hdg 271

Location; PHSF
Day. 16 / Time. 17.56 Zulu
* Altimeter: 30.34
* Temperature: 19° c. 66.2°f.
* Wind from: 190° Speed 09 kn.
Dewpoint: 09° c.
Visibility: 10 Statute Miles.
Clouds: Clear (automated report).

PHSF 161756Z AUTO 19009KT 10SM CLR 19/09 A3034 RMK AO2 SLP152 WND DATA ESTMD T01890085 10189 20117 52010 $


Wind From 190°
Speed 09 kn.

 
 
jpsmedia.com for Web Design worldairports.se 2018   terms of use